Time;durP1;ratioP1;P1;durP2;ratioP2;P2;SDS_P1;SDS_P2;PMS_P1;PMS_P2;Temp;Humidity;BMP_temperature;BMP_pressure;BME280_temperature;BME280_humidity;BME280_pressure;Samples;Min_cycle;Max_cycle;Signal;HPM_P1;HPM_P2
2022/03/07 00:00:38;;;;;;;13.05;8.50;;;-0.20;24.70;;;;;;5027578;28;34357;-77
2022/03/07 00:03:04;;;;;;;11.07;7.95;;;-0.20;24.90;;;;;;5027437;28;34394;-77
2022/03/07 00:05:30;;;;;;;13.63;8.50;;;-0.30;25.40;;;;;;5027009;28;35835;-77
2022/03/07 00:07:57;;;;;;;14.80;7.88;;;-0.20;25.60;;;;;;5045199;28;34401;-77
2022/03/07 00:10:23;;;;;;;9.13;7.03;;;-0.30;25.40;;;;;;5027563;28;34047;-77
2022/03/07 00:12:49;;;;;;;11.65;8.18;;;-0.30;25.30;;;;;;5027671;28;34466;-76
2022/03/07 00:15:20;;;;;;;16.60;8.88;;;-0.30;25.40;;;;;;5044128;28;34236;-77
2022/03/07 00:17:46;;;;;;;15.32;8.40;;;-0.40;25.50;;;;;;5027667;28;34323;-77
2022/03/07 00:20:12;;;;;;;15.23;8.50;;;-0.40;25.50;;;;;;5027509;28;34055;-76
2022/03/07 00:22:38;;;;;;;13.95;7.75;;;-0.40;25.70;;;;;;5010598;28;34542;-76
2022/03/07 00:25:05;;;;;;;12.98;7.43;;;-0.50;26.40;;;;;;5027166;28;35591;-76
2022/03/07 00:27:31;;;;;;;14.00;7.50;;;-0.50;25.80;;;;;;4994331;28;34079;-77
2022/03/07 00:29:57;;;;;;;12.82;8.35;;;-0.60;26.50;;;;;;5026850;28;34102;-77
2022/03/07 00:32:22;;;;;;;15.38;7.95;;;-0.60;26.30;;;;;;5027105;28;34245;-77
2022/03/07 00:34:48;;;;;;;11.65;7.40;;;-0.60;26.90;;;;;;5026668;28;36332;-77
2022/03/07 00:37:15;;;;;;;15.20;8.20;;;-0.70;27.10;;;;;;5010354;28;34294;-77
2022/03/07 00:39:40;;;;;;;14.30;8.60;;;-0.70;27.20;;;;;;5010471;28;34267;-76
2022/03/07 00:42:06;;;;;;;11.77;7.50;;;-0.70;26.70;;;;;;5010798;28;34295;-77
2022/03/07 00:44:32;;;;;;;13.48;8.02;;;-0.70;26.70;;;;;;5010117;28;36496;-77
2022/03/07 00:46:58;;;;;;;11.27;7.35;;;-0.70;26.60;;;;;;4994542;28;33984;-76
2022/03/07 00:49:24;;;;;;;13.70;8.07;;;-0.80;27.00;;;;;;5010112;28;34401;-77
2022/03/07 00:51:50;;;;;;;17.63;8.73;;;-0.90;26.90;;;;;;5010368;28;34129;-77
2022/03/07 00:54:16;;;;;;;12.25;7.60;;;-0.90;26.90;;;;;;5026795;28;36712;-77
2022/03/07 00:56:43;;;;;;;12.85;7.25;;;-0.90;27.30;;;;;;5026281;28;34166;-77
2022/03/07 00:59:09;;;;;;;15.38;8.40;;;-1.00;27.30;;;;;;5026668;28;34205;-77
2022/03/07 01:01:35;;;;;;;10.65;6.43;;;-1.00;27.50;;;;;;4993957;28;34166;-77
2022/03/07 01:04:01;;;;;;;15.40;7.68;;;-1.00;27.50;;;;;;5043345;28;34511;-77
2022/03/07 01:06:27;;;;;;;11.88;7.28;;;-1.00;27.50;;;;;;5025942;28;34111;-77
2022/03/07 01:08:53;;;;;;;12.73;7.63;;;-1.10;27.70;;;;;;5026926;28;34074;-77
2022/03/07 01:11:19;;;;;;;12.70;7.20;;;-1.10;27.80;;;;;;5026261;28;34144;-77
2022/03/07 01:13:45;;;;;;;11.00;6.93;;;-1.10;28.10;;;;;;5026397;28;36072;-77
2022/03/07 01:16:11;;;;;;;13.65;7.35;;;-1.10;28.10;;;;;;5026196;28;34105;-77
2022/03/07 01:18:37;;;;;;;15.57;8.63;;;-1.20;28.10;;;;;;5026449;28;34269;-77
2022/03/07 01:21:03;;;;;;;19.55;10.23;;;-1.20;28.20;;;;;;5026812;28;34150;-77
2022/03/07 01:23:29;;;;;;;13.48;7.90;;;-1.20;28.60;;;;;;5025667;28;35629;-77
2022/03/07 01:25:55;;;;;;;14.10;7.15;;;-1.20;28.40;;;;;;5009908;28;34330;-77
2022/03/07 01:28:21;;;;;;;11.75;6.88;;;-1.20;28.40;;;;;;5025602;28;34066;-77
2022/03/07 01:30:48;;;;;;;13.85;7.47;;;-1.20;28.20;;;;;;5026611;28;34311;-77
2022/03/07 01:33:15;;;;;;;19.77;9.68;;;-1.30;29.00;;;;;;5025912;28;35791;-77
2022/03/07 01:35:41;;;;;;;17.63;10.20;;;-1.30;28.60;;;;;;5043912;28;34355;-77
2022/03/07 01:38:07;;;;;;;13.23;7.93;;;-1.30;28.10;;;;;;5009852;28;34215;-77
2022/03/07 01:40:33;;;;;;;16.27;7.57;;;-1.30;28.40;;;;;;5025876;28;34176;-77
2022/03/07 01:42:59;;;;;;;11.00;6.72;;;-1.30;28.40;;;;;;5025046;28;36228;-77
2022/03/07 01:45:25;;;;;;;13.73;6.22;;;-1.40;28.40;;;;;;5008487;28;34312;-77
2022/03/07 01:47:51;;;;;;;14.18;7.28;;;-1.40;28.40;;;;;;5042801;28;34211;-77
2022/03/07 01:50:20;;;;;;;11.23;6.57;;;-1.40;28.40;;;;;;5026129;28;34076;-77
2022/03/07 01:52:50;;;;;;;10.88;7.35;;;-1.50;29.10;;;;;;5026152;28;36857;-77
2022/03/07 01:55:17;;;;;;;9.32;6.38;;;-1.50;29.00;;;;;;5026070;28;34534;-77
2022/03/07 01:57:44;;;;;;;10.82;7.25;;;-1.50;29.10;;;;;;5009556;28;34364;-77
2022/03/07 02:00:15;;;;;;;11.63;6.53;;;-1.50;29.00;;;;;;5025349;28;34482;-77
2022/03/07 02:02:42;;;;;;;13.60;7.00;;;-1.60;29.70;;;;;;5025237;28;35485;-77
2022/03/07 02:05:10;;;;;;;11.25;6.75;;;-1.60;29.50;;;;;;5025274;28;34086;-77
2022/03/07 02:07:37;;;;;;;12.27;7.25;;;-1.60;29.10;;;;;;5043043;28;34139;-77
2022/03/07 02:10:05;;;;;;;12.73;7.20;;;-1.60;30.40;;;;;;5026085;28;34091;-77
2022/03/07 02:12:31;;;;;;;11.00;6.72;;;-1.70;29.60;;;;;;4992894;28;35814;-77
2022/03/07 02:14:57;;;;;;;15.80;9.63;;;-1.70;29.60;;;;;;5026177;28;34101;-77
2022/03/07 02:17:23;;;;;;;12.88;7.85;;;-1.70;29.60;;;;;;5025136;28;34046;-77
2022/03/07 02:19:49;;;;;;;14.10;8.23;;;-1.70;29.70;;;;;;5043694;28;34250;-77
2022/03/07 02:22:16;;;;;;;15.10;7.75;;;-1.70;29.80;;;;;;5042986;28;34184;-78
2022/03/07 02:24:42;;;;;;;11.07;6.35;;;-1.80;29.80;;;;;;5043172;28;34199;-77
2022/03/07 02:27:10;;;;;;;10.98;6.45;;;-1.80;29.50;;;;;;5043269;28;34152;-77
2022/03/07 02:29:37;;;;;;;15.40;8.77;;;-1.80;29.30;;;;;;5008994;28;34210;-77
2022/03/07 02:32:05;;;;;;;10.95;6.75;;;-1.80;29.60;;;;;;5025369;28;35921;-77
2022/03/07 02:34:31;;;;;;;12.50;6.65;;;-1.80;30.20;;;;;;5009000;28;34139;-77
2022/03/07 02:36:58;;;;;;;10.63;6.70;;;-1.90;29.90;;;;;;5043376;28;34115;-77
2022/03/07 02:39:24;;;;;;;10.85;7.15;;;-1.90;30.00;;;;;;5009157;28;34145;-77
2022/03/07 02:41:50;;;;;;;9.77;6.55;;;-1.90;29.80;;;;;;5042589;28;35059;-77
2022/03/07 02:44:16;;;;;;;10.48;6.82;;;-1.90;30.30;;;;;;5024481;28;34192;-77
2022/03/07 02:46:42;;;;;;;12.40;5.70;;;-1.90;30.10;;;;;;5043205;28;34374;-77
2022/03/07 02:49:08;;;;;;;11.48;6.30;;;-1.90;30.30;;;;;;5008814;28;34392;-77
2022/03/07 02:51:35;;;;;;;10.93;6.28;;;-1.90;30.30;;;;;;5025139;28;36435;-77
2022/03/07 02:54:01;;;;;;;9.85;5.85;;;-1.90;30.10;;;;;;5011229;28;34246;-77
2022/03/07 02:56:27;;;;;;;8.90;6.07;;;-1.90;30.20;;;;;;5029032;28;34102;-77
2022/03/07 02:58:53;;;;;;;10.38;6.05;;;-1.90;30.00;;;;;;5011974;28;34479;-77
2022/03/07 03:01:19;;;;;;;10.00;5.60;;;-2.00;29.90;;;;;;5028324;28;35763;-77
2022/03/07 03:03:46;;;;;;;8.02;5.53;;;-2.00;30.10;;;;;;5046576;28;34222;-77
2022/03/07 03:06:12;;;;;;;8.68;5.85;;;-2.00;30.40;;;;;;5029142;28;34247;-77
2022/03/07 03:08:38;;;;;;;7.95;5.57;;;-2.00;30.40;;;;;;5029334;28;34006;-77
2022/03/07 03:11:05;;;;;;;10.45;5.10;;;-2.10;30.40;;;;;;5012676;28;36045;-77
2022/03/07 03:13:31;;;;;;;7.93;5.28;;;-2.10;30.70;;;;;;5028923;28;34217;-77
2022/03/07 03:15:57;;;;;;;10.32;5.85;;;-2.10;31.00;;;;;;5028552;28;34465;-77
2022/03/07 03:18:23;;;;;;;8.20;5.53;;;-2.10;30.90;;;;;;5012806;28;34408;-77
2022/03/07 03:20:51;;;;;;;10.05;5.32;;;-2.10;30.60;;;;;;5028550;28;35663;-77
2022/03/07 03:23:18;;;;;;;8.70;6.30;;;-2.10;30.50;;;;;;5012120;28;34084;-77
2022/03/07 03:25:45;;;;;;;9.68;5.70;;;-2.10;30.00;;;;;;5029260;28;34411;-77
2022/03/07 03:28:11;;;;;;;7.93;5.10;;;-2.10;30.40;;;;;;5028526;28;34094;-77
2022/03/07 03:30:37;;;;;;;9.32;5.05;;;-2.10;30.30;;;;;;5028875;28;35673;-77
2022/03/07 03:33:03;;;;;;;10.13;6.00;;;-2.10;29.90;;;;;;5029782;28;34077;-77
2022/03/07 03:35:30;;;;;;;9.90;5.63;;;-2.10;30.10;;;;;;5046349;28;34133;-77
2022/03/07 03:37:56;;;;;;;7.25;4.35;;;-2.10;29.80;;;;;;5012629;28;34247;-77
2022/03/07 03:40:22;;;;;;;8.13;5.05;;;-2.00;29.70;;;;;;5046467;28;34212;-77
2022/03/07 03:42:48;;;;;;;8.18;5.25;;;-1.90;29.60;;;;;;5028357;28;34089;-77
2022/03/07 03:45:14;;;;;;;10.50;6.38;;;-1.90;29.10;;;;;;5046138;28;34244;-77
2022/03/07 03:47:42;;;;;;;8.73;5.13;;;-1.90;29.10;;;;;;5027980;28;34091;-77
2022/03/07 03:50:11;;;;;;;8.00;4.82;;;-1.90;29.10;;;;;;5011628;28;36581;-77
2022/03/07 03:52:38;;;;;;;6.65;5.00;;;-1.90;28.90;;;;;;5028990;28;34292;-77
2022/03/07 03:55:06;;;;;;;7.50;4.72;;;-1.90;29.30;;;;;;5029662;28;33742;-77
2022/03/07 03:57:32;;;;;;;4.18;3.78;;;-1.90;30.00;;;;;;5029126;28;34149;-77
2022/03/07 03:59:58;;;;;;;9.40;4.72;;;-1.90;29.30;;;;;;5028711;28;36194;-77
2022/03/07 04:02:24;;;;;;;5.53;3.88;;;-2.00;29.30;;;;;;5029909;28;34177;-77
2022/03/07 04:04:50;;;;;;;5.18;3.42;;;-1.90;29.90;;;;;;5028756;28;34383;-77
2022/03/07 04:07:16;;;;;;;6.10;3.90;;;-1.90;28.90;;;;;;5011001;28;34038;-77
2022/03/07 04:09:42;;;;;;;8.02;3.95;;;-1.80;28.70;;;;;;5029783;28;35957;-77
2022/03/07 04:12:09;;;;;;;7.10;3.63;;;-1.80;28.70;;;;;;5028171;28;34049;-77
2022/03/07 04:14:35;;;;;;;5.43;3.63;;;-1.70;28.50;;;;;;5028632;28;34084;-78
2022/03/07 04:17:01;;;;;;;6.72;3.55;;;-1.70;28.30;;;;;;5045563;28;34101;-77
2022/03/07 04:19:27;;;;;;;5.30;4.00;;;-1.70;28.20;;;;;;4995190;28;36170;-78
2022/03/07 04:21:53;;;;;;;4.82;3.75;;;-1.70;28.00;;;;;;5045938;28;34368;-78
2022/03/07 04:24:20;;;;;;;5.60;3.72;;;-1.70;28.20;;;;;;5045602;28;34163;-78
2022/03/07 04:26:46;;;;;;;6.45;3.50;;;-1.60;27.90;;;;;;5028128;28;34222;-78
2022/03/07 04:29:13;;;;;;;5.32;3.88;;;-1.60;27.60;;;;;;5046138;28;34552;-78
2022/03/07 04:31:41;;;;;;;7.05;3.53;;;-1.60;27.90;;;;;;5029407;28;34419;-78
2022/03/07 04:34:08;;;;;;;5.47;3.38;;;-1.50;27.40;;;;;;5027730;28;34384;-77
2022/03/07 04:36:38;;;;;;;7.25;4.22;;;-1.50;27.80;;;;;;5011788;28;34096;-78
2022/03/07 04:39:05;;;;;;;6.03;3.67;;;-1.50;27.60;;;;;;5011282;28;35720;-78
2022/03/07 04:41:32;;;;;;;4.47;3.63;;;-1.50;27.60;;;;;;5027785;28;34091;-77
2022/03/07 04:43:58;;;;;;;5.28;3.28;;;-1.60;27.60;;;;;;5028164;28;34242;-78
2022/03/07 04:46:24;;;;;;;5.60;3.60;;;-1.60;27.70;;;;;;5028709;28;34370;-78
2022/03/07 04:48:50;;;;;;;3.67;3.15;;;-1.60;27.60;;;;;;5044892;28;34482;-78
2022/03/07 04:51:16;;;;;;;7.53;3.45;;;-1.60;27.30;;;;;;5027202;28;34277;-78
2022/03/07 04:53:42;;;;;;;3.95;3.20;;;-1.50;27.40;;;;;;5027925;28;34289;-78
2022/03/07 04:56:09;;;;;;;3.92;3.15;;;-1.50;27.10;;;;;;5028053;28;34303;-77
2022/03/07 04:58:36;;;;;;;6.35;3.45;;;-1.50;27.10;;;;;;5028129;28;35504;-77
2022/03/07 05:01:02;;;;;;;5.00;2.95;;;-1.50;27.00;;;;;;5010792;28;34463;-78
2022/03/07 05:03:29;;;;;;;4.82;3.50;;;-1.50;27.10;;;;;;5045214;28;34150;-78
2022/03/07 05:05:55;;;;;;;4.50;3.58;;;-1.50;27.60;;;;;;5028253;28;34384;-78
2022/03/07 05:08:21;;;;;;;6.13;3.67;;;-1.50;26.90;;;;;;5044398;28;35001;-78
2022/03/07 05:10:47;;;;;;;4.30;3.75;;;-1.40;26.80;;;;;;5028319;28;34105;-78
2022/03/07 05:13:13;;;;;;;5.60;3.67;;;-1.50;27.10;;;;;;5027141;28;34237;-78
2022/03/07 05:15:39;;;;;;;3.25;2.63;;;-1.50;27.10;;;;;;5029443;28;34069;-77
2022/03/07 05:18:05;;;;;;;5.70;2.85;;;-1.50;27.40;;;;;;5027378;28;35575;-78
2022/03/07 05:20:31;;;;;;;5.38;3.83;;;-1.50;26.70;;;;;;5028330;28;34108;-78
2022/03/07 05:22:58;;;;;;;3.47;3.00;;;-1.50;26.70;;;;;;5027686;28;34380;-78
2022/03/07 05:25:24;;;;;;;3.70;3.00;;;-1.40;26.70;;;;;;5027414;28;34217;-78
2022/03/07 05:27:51;;;;;;;3.25;2.95;;;-1.40;26.50;;;;;;5026784;28;35794;-77
2022/03/07 05:30:20;;;;;;;3.38;2.92;;;-1.40;26.30;;;;;;5044772;28;34255;-77
2022/03/07 05:32:50;;;;;;;3.80;2.92;;;-1.40;26.40;;;;;;4994704;28;34399;-78
2022/03/07 05:35:17;;;;;;;4.03;3.15;;;-1.50;26.50;;;;;;5027105;28;34141;-78
2022/03/07 05:37:43;;;;;;;2.60;2.38;;;-1.50;26.50;;;;;;5027180;28;35800;-78
2022/03/07 05:40:10;;;;;;;6.95;2.92;;;-1.60;26.80;;;;;;5027234;28;34293;-78
2022/03/07 05:42:38;;;;;;;4.80;2.75;;;-1.60;26.80;;;;;;5010315;28;34094;-78
2022/03/07 05:45:06;;;;;;;3.72;3.00;;;-1.60;26.80;;;;;;5027952;28;34173;-78
2022/03/07 05:47:32;;;;;;;3.03;2.65;;;-1.70;26.80;;;;;;5027581;28;35450;-78
2022/03/07 05:49:58;;;;;;;4.80;3.08;;;-1.70;26.90;;;;;;5044426;28;34085;-78
2022/03/07 05:52:24;;;;;;;7.55;3.17;;;-1.70;26.90;;;;;;5026709;28;34383;-78
2022/03/07 05:54:50;;;;;;;2.65;2.13;;;-1.70;26.90;;;;;;5045433;28;34152;-77
2022/03/07 05:57:16;;;;;;;2.55;2.35;;;-1.70;27.20;;;;;;5010179;28;35509;-78
2022/03/07 05:59:43;;;;;;;3.80;2.78;;;-1.70;26.50;;;;;;5010760;28;34092;-77
2022/03/07 06:02:09;;;;;;;3.25;2.67;;;-1.70;27.40;;;;;;5027595;28;34245;-78
2022/03/07 06:04:34;;;;;;;4.03;2.88;;;-1.60;26.50;;;;;;5009129;28;35109;-78
2022/03/07 06:07:00;;;;;;;3.63;2.80;;;-1.60;26.50;;;;;;5005442;28;36036;-78
2022/03/07 06:09:26;;;;;;;5.05;2.63;;;-1.60;26.50;;;;;;5000649;28;34109;-78
2022/03/07 06:11:52;;;;;;;7.22;2.97;;;-1.60;26.60;;;;;;5022342;28;34236;-78
2022/03/07 06:14:18;;;;;;;3.15;2.40;;;-1.70;26.90;;;;;;5023495;28;34335;-77
2022/03/07 06:16:44;;;;;;;3.92;3.17;;;-1.80;26.40;;;;;;4995133;28;35759;-78
2022/03/07 06:19:10;;;;;;;3.42;2.42;;;-1.80;26.70;;;;;;5020941;28;34247;-77
2022/03/07 06:21:36;;;;;;;4.25;3.00;;;-1.80;27.00;;;;;;5007465;28;34160;-78
2022/03/07 06:24:03;;;;;;;6.25;2.83;;;-1.80;26.60;;;;;;5015319;28;34118;-78
2022/03/07 06:26:28;;;;;;;5.10;2.75;;;-1.70;26.70;;;;;;5023546;28;34833;-78
2022/03/07 06:28:54;;;;;;;2.58;1.98;;;-1.70;26.50;;;;;;4979798;28;34345;-77
2022/03/07 06:31:20;;;;;;;4.15;2.70;;;-1.70;26.70;;;;;;5010153;28;34302;-78
2022/03/07 06:33:46;;;;;;;2.92;2.38;;;-1.70;26.10;;;;;;5024457;28;34237;-78
2022/03/07 06:36:12;;;;;;;3.78;2.60;;;-1.50;26.30;;;;;;5028332;28;35160;-78
2022/03/07 06:38:39;;;;;;;2.63;2.03;;;-1.50;26.40;;;;;;5013790;28;34145;-78
2022/03/07 06:41:06;;;;;;;2.85;2.28;;;-1.50;26.30;;;;;;5013862;28;34347;-77
2022/03/07 06:43:33;;;;;;;2.13;1.95;;;-1.50;26.30;;;;;;5019486;28;34070;-77
2022/03/07 06:46:00;;;;;;;3.22;2.28;;;-1.40;25.80;;;;;;5028934;28;35899;-75
2022/03/07 06:48:26;;;;;;;3.45;2.75;;;-1.20;25.90;;;;;;5013081;28;34161;-79
2022/03/07 06:50:52;;;;;;;2.35;2.15;;;-0.90;25.20;;;;;;5031674;28;34097;-77
2022/03/07 06:53:18;;;;;;;6.28;3.22;;;-0.80;24.70;;;;;;5027250;28;34256;-79
2022/03/07 06:55:44;;;;;;;6.35;2.63;;;-0.60;24.40;;;;;;5030051;28;36648;-77
2022/03/07 06:58:10;;;;;;;3.30;2.60;;;-0.50;23.50;;;;;;5024715;28;34356;-78
2022/03/07 07:00:36;;;;;;;3.70;2.53;;;-0.30;23.30;;;;;;5029998;28;34212;-78
2022/03/07 07:03:02;;;;;;;3.65;2.83;;;-0.10;23.20;;;;;;5009551;28;34078;-79
2022/03/07 07:05:28;;;;;;;5.82;2.97;;;0.10;23.10;;;;;;5034117;28;35860;-78
2022/03/07 07:07:55;;;;;;;4.07;2.95;;;0.30;22.70;;;;;;5038306;28;34235;-78
2022/03/07 07:10:21;;;;;;;3.67;2.90;;;0.40;22.10;;;;;;5052875;28;34132;-78
2022/03/07 07:12:49;;;;;;;3.20;2.78;;;0.60;22.10;;;;;;5054255;28;34391;-78
2022/03/07 07:15:15;;;;;;;5.30;2.92;;;0.70;21.80;;;;;;5054230;28;35007;-78
2022/03/07 07:17:42;;;;;;;5.50;3.33;;;0.80;21.30;;;;;;5053816;28;34132;-78
2022/03/07 07:20:10;;;;;;;4.78;3.55;;;0.90;21.50;;;;;;5071841;28;34144;-78
2022/03/07 07:22:36;;;;;;;7.30;3.10;;;0.90;21.50;;;;;;5037944;28;34254;-79
2022/03/07 07:25:04;;;;;;;4.57;2.72;;;1.00;21.60;;;;;;5053853;28;35608;-78
2022/03/07 07:27:30;;;;;;;5.38;3.30;;;1.10;20.10;;;;;;5036914;28;34119;-78
2022/03/07 07:29:56;;;;;;;4.43;2.97;;;1.30;20.80;;;;;;5036966;28;34349;-78
2022/03/07 07:32:23;;;;;;;4.90;3.33;;;1.40;20.70;;;;;;5037822;28;34202;-79
2022/03/07 07:34:49;;;;;;;4.97;3.42;;;1.50;20.00;;;;;;5054011;28;35734;-78
2022/03/07 07:37:15;;;;;;;6.45;4.00;;;1.70;19.30;;;;;;5053684;28;34302;-79
2022/03/07 07:39:41;;;;;;;5.57;3.20;;;1.80;19.90;;;;;;5052219;28;34303;-79
2022/03/07 07:42:07;;;;;;;5.00;3.90;;;2.00;19.80;;;;;;5050631;28;34096;-77
2022/03/07 07:44:33;;;;;;;5.80;3.10;;;2.10;18.80;;;;;;5034629;28;36089;-79
2022/03/07 07:46:59;;;;;;;4.57;3.58;;;2.20;17.60;;;;;;5069416;28;34181;-79
2022/03/07 07:49:25;;;;;;;4.22;3.33;;;2.30;18.80;;;;;;5050984;28;34070;-79
2022/03/07 07:51:52;;;;;;;5.07;3.80;;;2.40;18.70;;;;;;5050519;28;34213;-79
2022/03/07 07:54:18;;;;;;;4.82;3.65;;;2.40;18.30;;;;;;5068694;28;34035;-79
2022/03/07 07:56:44;;;;;;;6.03;3.92;;;2.50;18.70;;;;;;5051330;28;34277;-79
2022/03/07 07:59:11;;;;;;;8.50;4.13;;;2.50;18.40;;;;;;5051048;28;34125;-78
2022/03/07 08:01:37;;;;;;;5.68;4.15;;;2.60;18.50;;;;;;5067049;28;34109;-79
2022/03/07 08:04:03;;;;;;;5.75;3.85;;;2.80;18.60;;;;;;5051412;28;36626;-78
2022/03/07 08:06:29;;;;;;;5.55;3.88;;;2.90;18.20;;;;;;5051995;28;34469;-78
2022/03/07 08:08:55;;;;;;;5.53;4.45;;;3.00;18.30;;;;;;5051827;28;34177;-78
2022/03/07 08:11:21;;;;;;;5.20;4.03;;;3.00;18.10;;;;;;5035504;28;34454;-78
2022/03/07 08:13:47;;;;;;;4.45;3.75;;;3.00;17.70;;;;;;5071002;28;34199;-79
2022/03/07 08:16:13;;;;;;;5.75;4.38;;;3.10;17.60;;;;;;5020677;28;34393;-78
2022/03/07 08:18:39;;;;;;;9.10;4.97;;;2.90;17.90;;;;;;5053838;28;34148;-78
2022/03/07 08:21:05;;;;;;;7.65;5.47;;;3.10;18.40;;;;;;5051165;28;34187;-77
2022/03/07 08:23:31;;;;;;;7.18;5.30;;;3.10;17.90;;;;;;5033784;28;35870;-77
2022/03/07 08:25:57;;;;;;;7.32;4.88;;;3.10;17.00;;;;;;5033501;28;34150;-77
2022/03/07 08:28:24;;;;;;;8.02;5.00;;;2.80;15.00;;;;;;5066326;28;34067;-77
2022/03/07 08:30:50;;;;;;;8.05;5.47;;;3.00;17.80;;;;;;5049398;28;34369;-77
2022/03/07 08:33:16;;;;;;;8.55;5.53;;;3.20;18.10;;;;;;5031725;28;35497;-77
2022/03/07 08:35:42;;;;;;;7.05;5.05;;;3.40;16.80;;;;;;5048028;28;34718;-77
2022/03/07 08:38:08;;;;;;;6.60;4.85;;;3.50;15.60;;;;;;5048678;28;34283;-77
2022/03/07 08:40:34;;;;;;;7.93;5.40;;;3.60;16.60;;;;;;5032223;28;34194;-77
2022/03/07 08:43:00;;;;;;;8.85;6.28;;;3.70;17.00;;;;;;5031655;28;35914;-77
2022/03/07 08:45:26;;;;;;;8.95;5.97;;;3.80;17.10;;;;;;5048046;28;34271;-77
2022/03/07 08:47:53;;;;;;;9.18;5.68;;;3.80;16.30;;;;;;5031778;28;34275;-76
2022/03/07 08:50:19;;;;;;;6.80;5.15;;;3.80;15.40;;;;;;5048818;28;34186;-76
2022/03/07 08:52:46;;;;;;;7.85;4.95;;;3.90;16.20;;;;;;5031813;28;36074;-76
2022/03/07 08:55:13;;;;;;;7.90;5.78;;;3.90;14.60;;;;;;5047958;28;33998;-76
2022/03/07 08:57:39;;;;;;;9.50;5.95;;;3.90;16.90;;;;;;5066817;28;34190;-77
2022/03/07 09:00:10;;;;;;;8.45;6.10;;;4.10;16.70;;;;;;5032368;28;34549;-77
2022/03/07 09:02:36;;;;;;;9.95;6.40;;;4.20;14.60;;;;;;5014964;28;35995;-76
2022/03/07 09:05:03;;;;;;;8.23;5.88;;;4.30;16.30;;;;;;5031634;28;34114;-77
2022/03/07 09:07:29;;;;;;;6.90;5.13;;;4.20;14.80;;;;;;5048773;28;34144;-76
2022/03/07 09:09:56;;;;;;;6.97;5.72;;;4.30;14.00;;;;;;5047788;28;34128;-77
2022/03/07 09:12:27;;;;;;;9.35;6.72;;;4.40;13.60;;;;;;5047629;28;34432;-76
2022/03/07 09:14:55;;;;;;;8.85;6.47;;;4.50;15.90;;;;;;5065834;28;34056;-76
2022/03/07 09:17:21;;;;;;;8.88;5.95;;;4.60;14.80;;;;;;5047830;28;34224;-76
2022/03/07 09:19:47;;;;;;;9.05;6.70;;;4.60;14.80;;;;;;5032057;28;34319;-76
2022/03/07 09:22:13;;;;;;;9.27;6.35;;;4.70;15.40;;;;;;5030851;28;35770;-76
2022/03/07 09:24:39;;;;;;;9.77;6.50;;;4.90;15.70;;;;;;5047500;28;34143;-76
2022/03/07 09:27:05;;;;;;;9.85;6.65;;;5.10;15.50;;;;;;5066068;28;34230;-76
2022/03/07 09:29:31;;;;;;;6.50;5.10;;;5.20;13.90;;;;;;5032295;28;34078;-77
2022/03/07 09:31:57;;;;;;;12.30;6.57;;;5.10;12.60;;;;;;5046812;28;36305;-76
2022/03/07 09:34:26;;;;;;;9.35;6.65;;;5.40;14.70;;;;;;5048320;28;34390;-77
2022/03/07 09:36:52;;;;;;;9.02;6.85;;;5.40;14.10;;;;;;5030837;28;34119;-76
2022/03/07 09:39:18;;;;;;;9.18;6.50;;;5.50;14.90;;;;;;5030324;28;34576;-77
2022/03/07 09:41:44;;;;;;;8.90;6.20;;;5.60;13.70;;;;;;5065797;28;34163;-76
2022/03/07 09:44:10;;;;;;;8.88;7.07;;;5.80;14.40;;;;;;5065850;28;34040;-76
2022/03/07 09:46:36;;;;;;;10.13;7.13;;;5.90;13.80;;;;;;5065484;28;34051;-76
2022/03/07 09:49:03;;;;;;;10.23;7.43;;;6.00;12.80;;;;;;5066192;28;34108;-76
2022/03/07 09:51:29;;;;;;;10.15;6.70;;;6.30;15.40;;;;;;5048174;28;35752;-76
2022/03/07 09:53:55;;;;;;;8.45;6.28;;;6.40;13.90;;;;;;5047152;28;34300;-76
2022/03/07 09:56:21;;;;;;;9.73;6.28;;;6.40;13.60;;;;;;5047627;28;34296;-76
2022/03/07 09:58:47;;;;;;;8.88;6.55;;;6.30;13.30;;;;;;5066058;28;34294;-76
2022/03/07 10:01:19;;;;;;;8.75;6.85;;;6.30;13.70;;;;;;5065261;28;34911;-76
2022/03/07 10:03:46;;;;;;;8.95;6.57;;;6.20;12.30;;;;;;5047948;28;34287;-76
2022/03/07 10:06:17;;;;;;;6.07;4.40;;;6.20;12.90;;;;;;5047653;28;34204;-76
2022/03/07 10:09:00;;;;;;;8.23;6.07;;;6.10;9.20;;;;;;5049461;28;34065;-76
2022/03/07 10:11:29;;;;;;;9.13;6.57;;;6.20;8.20;;;;;;5050617;28;36414;-77
2022/03/07 10:13:59;;;;;;;9.73;6.20;;;6.10;12.00;;;;;;5049437;28;34254;-76
2022/03/07 10:16:38;;;;;;;9.43;6.82;;;6.00;10.90;;;;;;5048018;28;34424;-77
2022/03/07 10:19:08;;;;;;;7.38;6.13;;;6.10;9.60;;;;;;5032577;28;34190;-76
2022/03/07 10:21:34;;;;;;;8.90;6.45;;;6.40;12.30;;;;;;5032214;28;35922;-76
2022/03/07 10:24:00;;;;;;;8.77;6.22;;;6.50;13.40;;;;;;5031138;28;34176;-77
2022/03/07 10:26:33;;;;;;;9.88;6.28;;;6.60;13.50;;;;;;5031961;28;34439;-77
2022/03/07 10:28:59;;;;;;;8.45;6.63;;;6.80;10.80;;;;;;5031861;28;34090;-76
2022/03/07 10:31:29;;;;;;;9.88;7.10;;;7.00;11.50;;;;;;5031414;28;36344;-76
2022/03/07 10:34:06;;;;;;;13.43;6.20;;;7.00;13.10;;;;;;5067244;28;34127;-77
2022/03/07 10:36:41;;;;;;;8.75;6.57;;;7.10;8.40;;;;;;5017525;28;34170;-76
2022/03/07 10:39:13;;;;;;;6.38;5.43;;;7.30;10.40;;;;;;5050098;28;34303;-76
2022/03/07 10:41:42;;;;;;;8.05;5.97;;;7.40;9.30;;;;;;5064325;28;34705;-77
2022/03/07 10:44:22;;;;;;;7.75;6.13;;;7.40;9.70;;;;;;5049058;28;34143;-76
2022/03/07 10:46:48;;;;;;;9.20;6.40;;;7.40;7.90;;;;;;5016672;28;34242;-76
2022/03/07 10:49:17;;;;;;;8.65;6.07;;;7.20;11.00;;;;;;5048631;28;34101;-76
2022/03/07 10:51:52;;;;;;;7.78;5.75;;;7.20;10.00;;;;;;5031226;28;35927;-76
2022/03/07 10:54:20;;;;;;;8.23;5.75;;;7.30;9.90;;;;;;5047819;28;34258;-76
2022/03/07 10:56:55;;;;;;;7.50;6.13;;;7.30;9.80;;;;;;5030945;28;34349;-77
2022/03/07 10:59:31;;;;;;;7.97;5.82;;;7.30;6.50;;;;;;5047583;28;34119;-76
2022/03/07 11:02:00;;;;;;;8.90;6.22;;;7.20;5.80;;;;;;5031466;28;36667;-76
2022/03/07 11:04:26;;;;;;;7.00;5.10;;;7.30;10.70;;;;;;5064941;28;34135;-77
2022/03/07 11:06:53;;;;;;;7.95;5.65;;;7.20;6.10;;;;;;5031046;28;34389;-76
2022/03/07 11:09:19;;;;;;;8.23;5.55;;;7.30;11.70;;;;;;5047452;28;34158;-76
2022/03/07 11:11:45;;;;;;;7.03;5.75;;;7.30;11.60;;;;;;5064736;28;34404;-76
2022/03/07 11:14:13;;;;;;;7.00;5.72;;;7.30;11.80;;;;;;5048843;28;34309;-76
2022/03/07 11:16:41;;;;;;;6.95;5.35;;;7.50;10.00;;;;;;5035537;28;34164;-76
2022/03/07 11:19:07;;;;;;;5.95;5.35;;;7.70;11.30;;;;;;5033026;28;34108;-76
2022/03/07 11:21:36;;;;;;;8.63;5.50;;;7.80;11.30;;;;;;5050975;28;35550;-77
2022/03/07 11:24:02;;;;;;;7.28;5.13;;;7.80;10.20;;;;;;5051635;28;34243;-77
2022/03/07 11:26:28;;;;;;;5.70;5.10;;;7.70;9.50;;;;;;5052033;28;34391;-76
2022/03/07 11:28:57;;;;;;;5.80;5.05;;;7.80;9.30;;;;;;5034665;28;34574;-76
2022/03/07 11:31:26;;;;;;;6.22;5.55;;;7.60;9.80;;;;;;5049506;28;35555;-76
2022/03/07 11:33:54;;;;;;;6.28;5.05;;;7.70;10.80;;;;;;5035962;28;34351;-76
2022/03/07 11:36:23;;;;;;;6.38;5.38;;;7.60;9.80;;;;;;5016638;28;34378;-76
2022/03/07 11:38:54;;;;;;;7.95;5.85;;;7.80;10.00;;;;;;5052173;28;34180;-76
2022/03/07 11:41:30;;;;;;;6.60;4.72;;;7.90;7.80;;;;;;5068048;28;35023;-76
2022/03/07 11:44:00;;;;;;;6.90;5.25;;;8.00;5.30;;;;;;5033913;28;34219;-76
2022/03/07 11:46:51;;;;;;;4.68;3.45;;;7.90;9.80;;;;;;5021152;28;34471;-77
2022/03/07 11:49:26;;;;;;;9.60;4.88;;;7.80;4.90;;;;;;5033546;28;34192;-77
2022/03/07 11:51:58;;;;;;;7.68;5.35;;;7.80;5.50;;;;;;5033968;28;35951;-76
2022/03/07 11:54:24;;;;;;;5.82;4.82;;;7.90;9.30;;;;;;5032788;28;34304;-77
2022/03/07 11:56:50;;;;;;;5.80;4.95;;;8.00;9.80;;;;;;5051672;28;34365;-77
2022/03/07 11:59:16;;;;;;;7.82;5.40;;;8.00;10.50;;;;;;5049660;28;34180;-77
2022/03/07 12:01:58;;;;;;;7.43;5.68;;;8.10;10.70;;;;;;5068103;28;34182;-76
2022/03/07 12:04:24;;;;;;;6.07;4.68;;;8.20;3.10;;;;;;5051044;28;34143;-76
2022/03/07 12:06:52;;;;;;;4.88;4.20;;;8.20;10.00;;;;;;5029489;28;34398;-77
2022/03/07 12:09:35;;;;;;;8.05;4.95;;;8.10;5.50;;;;;;5013281;28;34482;-76
2022/03/07 12:12:05;;;;;;;6.50;4.75;;;8.20;5.30;;;;;;5029293;28;35939;-77
2022/03/07 12:14:34;;;;;;;6.93;5.32;;;8.30;9.00;;;;;;5030412;28;34157;-76
2022/03/07 12:17:09;;;;;;;6.55;4.90;;;8.30;8.50;;;;;;5012709;28;34146;-76
2022/03/07 12:19:36;;;;;;;8.18;4.95;;;8.40;8.20;;;;;;5029346;28;34167;-76
2022/03/07 12:22:10;;;;;;;10.50;5.07;;;8.60;10.30;;;;;;5028771;28;35848;-76
2022/03/07 12:24:37;;;;;;;4.75;4.03;;;8.60;6.00;;;;;;5030686;28;34210;-77
2022/03/07 12:27:04;;;;;;;6.10;4.90;;;8.40;7.20;;;;;;5011657;28;34291;-77
2022/03/07 12:29:30;;;;;;;5.93;4.68;;;8.40;8.60;;;;;;5030174;28;34137;-77
2022/03/07 12:32:03;;;;;;;6.22;5.13;;;8.40;9.50;;;;;;5047885;28;35403;-76
2022/03/07 12:34:32;;;;;;;6.03;4.32;;;8.40;7.40;;;;;;5013426;28;34027;-76
2022/03/07 12:37:10;;;;;;;5.00;4.28;;;8.50;8.70;;;;;;5029144;28;34103;-77
2022/03/07 12:39:47;;;;;;;6.45;4.43;;;8.60;5.20;;;;;;5014325;28;34665;-76
2022/03/07 12:42:15;;;;;;;8.05;4.55;;;8.70;5.80;;;;;;5046810;28;34343;-77
2022/03/07 12:44:42;;;;;;;4.60;4.07;;;8.70;8.40;;;;;;5029828;28;34379;-76
2022/03/07 12:47:09;;;;;;;5.93;4.60;;;8.70;9.50;;;;;;5022922;28;34458;-77
2022/03/07 12:49:36;;;;;;;5.68;4.43;;;8.80;9.60;;;;;;5009272;28;34228;-76